sensor_id;sensor_type;location;lat;lon;timestamp;pressure;altitude;pressure_sealevel;temperature;humidity
56052;BME280;41919;42.648;23.384;2023-03-20T00:00:42;94868.00;;;7.14;56.95
56052;BME280;41919;42.648;23.384;2023-03-20T00:03:11;94918.81;;;7.39;57.16
56052;BME280;41919;42.648;23.384;2023-03-20T00:05:37;94831.09;;;6.95;56.87
56052;BME280;41919;42.648;23.384;2023-03-20T00:08:04;94898.28;;;7.44;57.03
56052;BME280;41919;42.648;23.384;2023-03-20T00:10:37;94793.34;;;6.61;57.12
56052;BME280;41919;42.648;23.384;2023-03-20T00:13:05;94863.47;;;6.61;58.36
56052;BME280;41919;42.648;23.384;2023-03-20T00:15:40;94882.41;;;6.39;59.60
56052;BME280;41919;42.648;23.384;2023-03-20T00:18:17;94808.41;;;5.56;60.84
56052;BME280;41919;42.648;23.384;2023-03-20T00:20:45;94900.16;;;6.19;60.96
56052;BME280;41919;42.648;23.384;2023-03-20T00:23:12;94900.88;;;6.04;61.24
56052;BME280;41919;42.648;23.384;2023-03-20T00:25:38;94868.34;;;5.77;61.87
56052;BME280;41919;42.648;23.384;2023-03-20T00:30:58;94806.25;;;5.03;64.01
56052;BME280;41919;42.648;23.384;2023-03-20T00:33:24;94824.69;;;5.00;64.60
56052;BME280;41919;42.648;23.384;2023-03-20T00:35:51;94807.53;;;4.99;64.13
56052;BME280;41919;42.648;23.384;2023-03-20T00:38:16;94871.97;;;5.35;64.13
56052;BME280;41919;42.648;23.384;2023-03-20T00:40:42;94860.94;;;5.49;63.28
56052;BME280;41919;42.648;23.384;2023-03-20T00:43:09;94881.78;;;5.73;62.87
56052;BME280;41919;42.648;23.384;2023-03-20T00:45:37;94877.09;;;5.68;62.60
56052;BME280;41919;42.648;23.384;2023-03-20T00:48:03;94863.31;;;5.76;62.43
56052;BME280;41919;42.648;23.384;2023-03-20T00:50:30;94793.88;;;5.38;61.97
56052;BME280;41919;42.648;23.384;2023-03-20T00:52:57;94867.50;;;5.77;61.99
56052;BME280;41919;42.648;23.384;2023-03-20T00:55:25;94884.84;;;5.84;61.82
56052;BME280;41919;42.648;23.384;2023-03-20T00:57:57;94867.34;;;5.78;61.53
56052;BME280;41919;42.648;23.384;2023-03-20T01:02:50;94848.13;;;5.56;61.20
56052;BME280;41919;42.648;23.384;2023-03-20T01:05:17;94868.84;;;5.64;61.67
56052;BME280;41919;42.648;23.384;2023-03-20T01:07:42;94778.41;;;5.05;61.37
56052;BME280;41919;42.648;23.384;2023-03-20T01:10:09;94844.75;;;5.39;61.48
56052;BME280;41919;42.648;23.384;2023-03-20T01:12:38;94781.47;;;5.01;61.72
56052;BME280;41919;42.648;23.384;2023-03-20T01:15:14;94844.09;;;5.45;61.50
56052;BME280;41919;42.648;23.384;2023-03-20T01:17:40;94857.97;;;5.77;61.10
56052;BME280;41919;42.648;23.384;2023-03-20T01:20:14;94859.72;;;5.85;60.92
56052;BME280;41919;42.648;23.384;2023-03-20T01:22:40;94854.34;;;5.86;60.60
56052;BME280;41919;42.648;23.384;2023-03-20T01:25:06;94782.53;;;5.47;60.15
56052;BME280;41919;42.648;23.384;2023-03-20T01:27:32;94818.75;;;5.72;59.83
56052;BME280;41919;42.648;23.384;2023-03-20T01:29:57;94787.06;;;5.45;60.06
56052;BME280;41919;42.648;23.384;2023-03-20T01:32:22;94851.97;;;5.68;60.67
56052;BME280;41919;42.648;23.384;2023-03-20T01:34:48;94859.28;;;5.65;61.22
56052;BME280;41919;42.648;23.384;2023-03-20T01:37:17;94866.56;;;5.61;61.53
56052;BME280;41919;42.648;23.384;2023-03-20T01:39:46;94867.38;;;5.62;61.58
56052;BME280;41919;42.648;23.384;2023-03-20T01:42:15;94794.75;;;4.98;61.96
56052;BME280;41919;42.648;23.384;2023-03-20T01:44:41;94832.94;;;5.04;63.40
56052;BME280;41919;42.648;23.384;2023-03-20T01:47:18;94793.94;;;4.40;64.92
56052;BME280;41919;42.648;23.384;2023-03-20T01:52:44;94864.78;;;4.47;66.91
56052;BME280;41919;42.648;23.384;2023-03-20T01:55:10;94798.81;;;3.92;67.99
56052;BME280;41919;42.648;23.384;2023-03-20T01:57:36;94771.13;;;3.76;68.14
56052;BME280;41919;42.648;23.384;2023-03-20T02:00:04;94867.63;;;4.27;68.51
56052;BME280;41919;42.648;23.384;2023-03-20T02:02:30;94848.34;;;4.13;68.56
56052;BME280;41919;42.648;23.384;2023-03-20T02:05:01;94851.44;;;4.25;68.54
56052;BME280;41919;42.648;23.384;2023-03-20T02:07:28;94786.94;;;3.73;68.61
56052;BME280;41919;42.648;23.384;2023-03-20T02:09:55;94799.78;;;3.91;68.64
56052;BME280;41919;42.648;23.384;2023-03-20T02:12:20;94866.38;;;4.31;68.50
56052;BME280;41919;42.648;23.384;2023-03-20T02:14:47;94856.97;;;4.30;68.74
56052;BME280;41919;42.648;23.384;2023-03-20T02:17:13;94852.47;;;4.41;67.89
56052;BME280;41919;42.648;23.384;2023-03-20T02:45:28;94791.28;;;4.07;66.86
56052;BME280;41919;42.648;23.384;2023-03-20T02:53:40;94803.13;;;4.50;65.39
56052;BME280;41919;42.648;23.384;2023-03-20T03:01:35;94843.16;;;4.72;65.30
56052;BME280;41919;42.648;23.384;2023-03-20T03:04:28;94830.94;;;4.40;66.18
56052;BME280;41919;42.648;23.384;2023-03-20T03:06:55;94755.66;;;3.84;66.21
56052;BME280;41919;42.648;23.384;2023-03-20T03:09:32;94849.50;;;4.27;66.98
56052;BME280;41919;42.648;23.384;2023-03-20T03:12:10;94841.78;;;4.36;66.78
56052;BME280;41919;42.648;23.384;2023-03-20T03:14:47;94800.34;;;4.11;66.61
56052;BME280;41919;42.648;23.384;2023-03-20T03:17:16;94779.28;;;4.06;66.40
56052;BME280;41919;42.648;23.384;2023-03-20T03:19:52;94810.03;;;4.17;66.68
56052;BME280;41919;42.648;23.384;2023-03-20T03:22:19;94806.97;;;4.22;66.48
56052;BME280;41919;42.648;23.384;2023-03-20T03:24:48;94828.16;;;4.25;66.70
56052;BME280;41919;42.648;23.384;2023-03-20T03:27:21;94850.00;;;4.31;67.15
56052;BME280;41919;42.648;23.384;2023-03-20T03:29:55;94825.19;;;3.96;68.15
56052;BME280;41919;42.648;23.384;2023-03-20T03:32:25;94797.50;;;3.88;67.81
56052;BME280;41919;42.648;23.384;2023-03-20T03:34:52;94790.13;;;4.09;67.03
56052;BME280;41919;42.648;23.384;2023-03-20T03:37:39;94859.47;;;4.65;66.30
56052;BME280;41919;42.648;23.384;2023-03-20T03:40:19;94844.94;;;4.72;65.61
56052;BME280;41919;42.648;23.384;2023-03-20T03:45:19;94854.00;;;4.93;64.78
56052;BME280;41919;42.648;23.384;2023-03-20T03:47:53;94850.59;;;5.00;64.59
56052;BME280;41919;42.648;23.384;2023-03-20T03:50:44;94850.13;;;5.13;63.90
56052;BME280;41919;42.648;23.384;2023-03-20T03:53:16;94854.16;;;5.16;63.86
56052;BME280;41919;42.648;23.384;2023-03-20T03:55:47;94788.91;;;4.79;63.99
56052;BME280;41919;42.648;23.384;2023-03-20T03:58:20;94852.88;;;5.03;63.45
56052;BME280;41919;42.648;23.384;2023-03-20T04:00:51;94857.38;;;4.85;63.81
56052;BME280;41919;42.648;23.384;2023-03-20T04:03:20;94845.34;;;4.35;65.19
56052;BME280;41919;42.648;23.384;2023-03-20T04:05:49;94765.53;;;3.54;66.49
56052;BME280;41919;42.648;23.384;2023-03-20T04:08:16;94845.88;;;3.96;67.28
56052;BME280;41919;42.648;23.384;2023-03-20T04:10:41;94836.28;;;3.80;67.90
56052;BME280;41919;42.648;23.384;2023-03-20T04:13:06;94841.06;;;3.66;69.11
56052;BME280;41919;42.648;23.384;2023-03-20T04:15:32;94844.28;;;3.68;69.81
56052;BME280;41919;42.648;23.384;2023-03-20T04:17:57;94833.66;;;3.45;71.02
56052;BME280;41919;42.648;23.384;2023-03-20T04:20:23;94625.78;;;1.84;72.24
56052;BME280;41919;42.648;23.384;2023-03-20T04:22:48;94769.81;;;2.59;73.97
56052;BME280;41919;42.648;23.384;2023-03-20T04:25:21;94747.00;;;2.28;75.25
56052;BME280;41919;42.648;23.384;2023-03-20T04:27:47;94777.56;;;2.41;76.43
56052;BME280;41919;42.648;23.384;2023-03-20T04:30:12;94835.44;;;2.74;76.41
56052;BME280;41919;42.648;23.384;2023-03-20T04:32:38;94749.63;;;2.19;76.52
56052;BME280;41919;42.648;23.384;2023-03-20T04:35:04;94815.09;;;2.53;76.91
56052;BME280;41919;42.648;23.384;2023-03-20T04:37:30;94823.69;;;2.44;77.78
56052;BME280;41919;42.648;23.384;2023-03-20T04:39:55;94835.88;;;2.52;77.67
56052;BME280;41919;42.648;23.384;2023-03-20T04:42:21;94756.03;;;1.96;77.89
56052;BME280;41919;42.648;23.384;2023-03-20T04:44:46;94821.13;;;2.44;78.30
56052;BME280;41919;42.648;23.384;2023-03-20T04:47:12;94763.94;;;2.13;78.04
56052;BME280;41919;42.648;23.384;2023-03-20T04:49:37;94856.22;;;2.73;77.61
56052;BME280;41919;42.648;23.384;2023-03-20T04:52:02;94849.13;;;2.75;77.32
56052;BME280;41919;42.648;23.384;2023-03-20T04:54:28;94807.78;;;2.67;76.36
56052;BME280;41919;42.648;23.384;2023-03-20T04:56:53;94799.22;;;2.66;75.90
56052;BME280;41919;42.648;23.384;2023-03-20T04:59:19;94864.13;;;3.16;75.25
56052;BME280;41919;42.648;23.384;2023-03-20T05:01:44;94803.38;;;3.03;74.15
56052;BME280;41919;42.648;23.384;2023-03-20T05:04:10;94776.44;;;3.06;72.68
56052;BME280;41919;42.648;23.384;2023-03-20T05:06:35;94811.06;;;3.47;71.53
56052;BME280;41919;42.648;23.384;2023-03-20T05:09:00;94789.78;;;3.53;70.55
56052;BME280;41919;42.648;23.384;2023-03-20T05:11:27;94812.50;;;3.76;69.48
56052;BME280;41919;42.648;23.384;2023-03-20T05:13:53;94862.16;;;4.39;68.30
56052;BME280;41919;42.648;23.384;2023-03-20T05:16:18;94859.47;;;4.57;66.80
56052;BME280;41919;42.648;23.384;2023-03-20T05:18:44;94810.69;;;4.27;66.43
56052;BME280;41919;42.648;23.384;2023-03-20T05:21:09;94869.06;;;4.97;65.96
56052;BME280;41919;42.648;23.384;2023-03-20T05:23:35;94816.59;;;4.70;65.03
56052;BME280;41919;42.648;23.384;2023-03-20T05:26:01;94847.03;;;5.01;64.67
56052;BME280;41919;42.648;23.384;2023-03-20T05:28:26;94859.69;;;5.13;64.43
56052;BME280;41919;42.648;23.384;2023-03-20T05:30:52;94869.53;;;5.17;64.26
56052;BME280;41919;42.648;23.384;2023-03-20T05:33:17;94881.38;;;5.20;64.51
56052;BME280;41919;42.648;23.384;2023-03-20T05:35:43;94839.91;;;4.87;64.98
56052;BME280;41919;42.648;23.384;2023-03-20T05:38:08;94812.88;;;4.65;65.01
56052;BME280;41919;42.648;23.384;2023-03-20T05:40:34;94818.53;;;4.77;65.01
56052;BME280;41919;42.648;23.384;2023-03-20T05:43:00;94887.19;;;5.38;64.55
56052;BME280;41919;42.648;23.384;2023-03-20T05:45:25;94885.69;;;5.68;64.05
56052;BME280;41919;42.648;23.384;2023-03-20T05:47:51;94799.69;;;5.40;62.78
56052;BME280;41919;42.648;23.384;2023-03-20T05:50:16;94885.16;;;6.06;61.85
56052;BME280;41919;42.648;23.384;2023-03-20T05:52:45;94862.88;;;6.20;61.42
56052;BME280;41919;42.648;23.384;2023-03-20T05:55:11;94891.09;;;6.85;60.14
56052;BME280;41919;42.648;23.384;2023-03-20T05:57:37;94833.59;;;6.89;58.88
56052;BME280;41919;42.648;23.384;2023-03-20T06:00:02;94877.72;;;7.88;59.95
56052;BME280;41919;42.648;23.384;2023-03-20T06:02:29;94830.94;;;8.09;56.16
56052;BME280;41919;42.648;23.384;2023-03-20T06:04:55;94880.63;;;8.95;54.27
56052;BME280;41919;42.648;23.384;2023-03-20T06:07:20;94886.59;;;9.54;53.01
56052;BME280;41919;42.648;23.384;2023-03-20T06:09:46;94823.47;;;9.72;52.15
56052;BME280;41919;42.648;23.384;2023-03-20T06:12:11;94871.72;;;10.52;48.77
56052;BME280;41919;42.648;23.384;2023-03-20T06:14:37;94869.22;;;10.92;48.22
56052;BME280;41919;42.648;23.384;2023-03-20T06:17:02;94884.38;;;11.30;46.90
56052;BME280;41919;42.648;23.384;2023-03-20T06:19:27;94842.53;;;11.57;46.34
56052;BME280;41919;42.648;23.384;2023-03-20T06:21:53;94878.09;;;12.77;43.87
56052;BME280;41919;42.648;23.384;2023-03-20T06:24:19;94812.66;;;13.20;41.69
56052;BME280;41919;42.648;23.384;2023-03-20T06:26:44;94866.44;;;14.30;39.78
56052;BME280;41919;42.648;23.384;2023-03-20T06:29:10;94830.81;;;14.71;37.88
56052;BME280;41919;42.648;23.384;2023-03-20T06:31:35;94843.81;;;15.26;37.68
56052;BME280;41919;42.648;23.384;2023-03-20T06:34:01;94863.34;;;15.73;37.13
56052;BME280;41919;42.648;23.384;2023-03-20T06:36:26;94877.56;;;16.42;36.64
56052;BME280;41919;42.648;23.384;2023-03-20T06:38:52;94858.38;;;16.59;35.56
56052;BME280;41919;42.648;23.384;2023-03-20T06:41:17;94874.31;;;16.64;35.19
56052;BME280;41919;42.648;23.384;2023-03-20T06:43:43;94835.00;;;16.79;34.06
56052;BME280;41919;42.648;23.384;2023-03-20T06:46:08;94877.44;;;17.30;33.66
56052;BME280;41919;42.648;23.384;2023-03-20T06:48:34;94859.91;;;17.58;32.07
56052;BME280;41919;42.648;23.384;2023-03-20T06:50:59;94876.19;;;17.83;31.89
56052;BME280;41919;42.648;23.384;2023-03-20T06:53:24;94820.03;;;17.59;31.52
56052;BME280;41919;42.648;23.384;2023-03-20T06:55:51;94867.19;;;18.57;30.74
56052;BME280;41919;42.648;23.384;2023-03-20T06:58:18;94873.09;;;18.87;29.84
56052;BME280;41919;42.648;23.384;2023-03-20T07:00:44;94858.72;;;18.38;30.35
56052;BME280;41919;42.648;23.384;2023-03-20T07:03:10;94856.38;;;17.35;31.51
56052;BME280;41919;42.648;23.384;2023-03-20T07:05:37;94860.69;;;18.26;30.46
56052;BME280;41919;42.648;23.384;2023-03-20T07:08:03;94846.75;;;19.24;29.04
56052;BME280;41919;42.648;23.384;2023-03-20T07:10:29;94832.41;;;19.20;29.41
56052;BME280;41919;42.648;23.384;2023-03-20T07:12:55;94847.28;;;19.53;29.45
56052;BME280;41919;42.648;23.384;2023-03-20T07:15:21;94783.38;;;18.90;28.90
56052;BME280;41919;42.648;23.384;2023-03-20T07:17:46;94797.69;;;17.16;31.01
56052;BME280;41919;42.648;23.384;2023-03-20T07:20:12;94790.63;;;15.83;33.05
56052;BME280;41919;42.648;23.384;2023-03-20T07:22:38;94849.66;;;16.99;32.39
56052;BME280;41919;42.648;23.384;2023-03-20T07:25:06;94855.38;;;17.70;31.35
56052;BME280;41919;42.648;23.384;2023-03-20T07:27:32;94799.47;;;18.17;30.71
56052;BME280;41919;42.648;23.384;2023-03-20T07:29:58;94791.53;;;19.43;28.91
56052;BME280;41919;42.648;23.384;2023-03-20T07:32:23;94844.97;;;21.10;27.00
56052;BME280;41919;42.648;23.384;2023-03-20T07:34:48;94828.03;;;21.99;25.20
56052;BME280;41919;42.648;23.384;2023-03-20T07:37:14;94825.31;;;22.35;24.90
56052;BME280;41919;42.648;23.384;2023-03-20T07:39:40;94781.69;;;22.10;24.24
56052;BME280;41919;42.648;23.384;2023-03-20T07:42:05;94825.53;;;23.08;24.09
56052;BME280;41919;42.648;23.384;2023-03-20T07:44:31;94774.44;;;22.91;23.69
56052;BME280;41919;42.648;23.384;2023-03-20T07:46:56;94769.28;;;23.10;23.39
56052;BME280;41919;42.648;23.384;2023-03-20T07:49:22;94809.56;;;23.82;22.88
56052;BME280;41919;42.648;23.384;2023-03-20T07:51:48;94842.56;;;24.21;22.64
56052;BME280;41919;42.648;23.384;2023-03-20T07:54:14;94812.84;;;24.27;22.47
56052;BME280;41919;42.648;23.384;2023-03-20T07:56:40;94824.44;;;24.90;21.94
56052;BME280;41919;42.648;23.384;2023-03-20T07:59:06;94827.56;;;25.16;21.52
56052;BME280;41919;42.648;23.384;2023-03-20T08:01:31;94835.19;;;25.47;21.59
56052;BME280;41919;42.648;23.384;2023-03-20T08:03:57;94841.94;;;25.20;21.24
56052;BME280;41919;42.648;23.384;2023-03-20T08:06:22;94783.25;;;24.72;21.53
56052;BME280;41919;42.648;23.384;2023-03-20T08:08:47;94779.25;;;24.70;22.12
56052;BME280;41919;42.648;23.384;2023-03-20T08:11:16;94836.41;;;25.55;21.24
56052;BME280;41919;42.648;23.384;2023-03-20T08:13:42;94833.06;;;25.63;21.24
56052;BME280;41919;42.648;23.384;2023-03-20T08:16:07;94823.16;;;25.44;21.14
56052;BME280;41919;42.648;23.384;2023-03-20T08:18:33;94827.50;;;25.40;21.72
56052;BME280;41919;42.648;23.384;2023-03-20T08:20:59;94831.94;;;24.88;21.74
56052;BME280;41919;42.648;23.384;2023-03-20T08:23:24;94845.72;;;24.28;22.27
56052;BME280;41919;42.648;23.384;2023-03-20T08:25:51;94801.91;;;23.71;23.27
56052;BME280;41919;42.648;23.384;2023-03-20T08:28:18;94788.38;;;23.62;23.24
56052;BME280;41919;42.648;23.384;2023-03-20T08:30:44;94829.16;;;23.97;23.05
56052;BME280;41919;42.648;23.384;2023-03-20T08:33:10;94838.13;;;24.11;23.08
56052;BME280;41919;42.648;23.384;2023-03-20T08:35:35;94791.69;;;23.78;22.95
56052;BME280;41919;42.648;23.384;2023-03-20T08:38:01;94853.34;;;24.11;23.04
56052;BME280;41919;42.648;23.384;2023-03-20T08:40:27;94804.41;;;23.57;23.46
56052;BME280;41919;42.648;23.384;2023-03-20T08:42:53;94849.13;;;23.70;23.47
56052;BME280;41919;42.648;23.384;2023-03-20T13:35:53;94476.09;;;21.23;20.37
56052;BME280;41919;42.648;23.384;2023-03-20T13:38:25;94399.47;;;20.90;20.56
56052;BME280;41919;42.648;23.384;2023-03-20T13:41:03;94467.63;;;21.21;20.33
56052;BME280;41919;42.648;23.384;2023-03-20T13:43:44;94460.16;;;21.28;19.97
56052;BME280;41919;42.648;23.384;2023-03-20T13:48:40;94343.34;;;20.37;20.41
56052;BME280;41919;42.648;23.384;2023-03-20T13:51:12;94394.25;;;20.49;20.74
56052;BME280;41919;42.648;23.384;2023-03-20T14:02:02;94443.25;;;21.03;20.64
56052;BME280;41919;42.648;23.384;2023-03-20T14:04:33;94391.34;;;20.56;20.73
56052;BME280;41919;42.648;23.384;2023-03-20T14:06:59;94382.84;;;20.49;20.76
56052;BME280;41919;42.648;23.384;2023-03-20T14:09:26;94443.22;;;21.08;20.55
56052;BME280;41919;42.648;23.384;2023-03-20T14:12:01;94373.50;;;20.77;20.68
56052;BME280;41919;42.648;23.384;2023-03-20T14:14:29;94433.06;;;21.21;20.29
56052;BME280;41919;42.648;23.384;2023-03-20T14:17:02;94439.16;;;21.26;20.53
56052;BME280;41919;42.648;23.384;2023-03-20T14:19:33;94385.88;;;21.02;20.14
56052;BME280;41919;42.648;23.384;2023-03-20T14:22:00;94416.28;;;21.30;20.05
56052;BME280;41919;42.648;23.384;2023-03-20T14:24:26;94427.38;;;21.43;19.87
56052;BME280;41919;42.648;23.384;2023-03-20T14:26:56;94365.72;;;20.96;20.09
56052;BME280;41919;42.648;23.384;2023-03-20T14:34:44;94407.00;;;21.23;20.17
56052;BME280;41919;42.648;23.384;2023-03-20T14:40:28;94402.13;;;21.45;20.37
56052;BME280;41919;42.648;23.384;2023-03-20T14:43:04;94397.38;;;21.37;20.21
56052;BME280;41919;42.648;23.384;2023-03-20T14:53:31;94409.25;;;21.55;20.81
56052;BME280;41919;42.648;23.384;2023-03-20T14:56:26;94407.94;;;21.58;20.85
56052;BME280;41919;42.648;23.384;2023-03-20T14:58:55;94344.88;;;21.19;20.83
56052;BME280;41919;42.648;23.384;2023-03-20T15:01:25;94380.31;;;21.43;20.74
56052;BME280;41919;42.648;23.384;2023-03-20T15:04:16;94404.19;;;21.59;20.71
56052;BME280;41919;42.648;23.384;2023-03-20T15:06:56;94396.88;;;21.35;20.28
56052;BME280;41919;42.648;23.384;2023-03-20T15:09:24;94393.50;;;21.19;20.33
56052;BME280;41919;42.648;23.384;2023-03-20T15:11:51;94344.31;;;20.72;20.71
56052;BME280;41919;42.648;23.384;2023-03-20T15:14:21;94380.59;;;20.92;20.89
56052;BME280;41919;42.648;23.384;2023-03-20T15:16:56;94348.59;;;20.63;20.83
56052;BME280;41919;42.648;23.384;2023-03-20T15:19:23;94406.94;;;20.88;20.98
56052;BME280;41919;42.648;23.384;2023-03-20T15:21:48;94347.31;;;20.45;20.85
56052;BME280;41919;42.648;23.384;2023-03-20T15:26:44;94400.09;;;20.67;21.04
56052;BME280;41919;42.648;23.384;2023-03-20T15:29:12;94396.94;;;20.60;20.95
56052;BME280;41919;42.648;23.384;2023-03-20T15:31:41;94363.78;;;20.31;20.89
56052;BME280;41919;42.648;23.384;2023-03-20T15:34:11;94335.72;;;20.10;20.98
56052;BME280;41919;42.648;23.384;2023-03-20T15:36:40;94401.19;;;20.45;20.87
56052;BME280;41919;42.648;23.384;2023-03-20T15:39:12;94378.13;;;20.30;20.96
56052;BME280;41919;42.648;23.384;2023-03-20T15:41:39;94345.81;;;20.08;21.13
56052;BME280;41919;42.648;23.384;2023-03-20T15:44:19;94387.69;;;20.21;21.29
56052;BME280;41919;42.648;23.384;2023-03-20T15:49:37;94390.66;;;19.89;21.29
56052;BME280;41919;42.648;23.384;2023-03-20T15:52:29;94391.44;;;19.79;21.62
56052;BME280;41919;42.648;23.384;2023-03-20T15:54:57;94333.06;;;19.43;21.96
56052;BME280;41919;42.648;23.384;2023-03-20T15:57:37;94377.06;;;19.59;22.25
56052;BME280;41919;42.648;23.384;2023-03-20T16:00:07;94342.06;;;19.32;22.31
56052;BME280;41919;42.648;23.384;2023-03-20T16:02:35;94394.03;;;19.53;22.83
56052;BME280;41919;42.648;23.384;2023-03-20T16:05:02;94338.31;;;18.97;22.97
56052;BME280;41919;42.648;23.384;2023-03-20T16:07:30;94391.34;;;19.28;23.25
56052;BME280;41919;42.648;23.384;2023-03-20T16:09:59;94376.19;;;19.08;23.80
56052;BME280;41919;42.648;23.384;2023-03-20T16:12:25;94408.56;;;19.30;24.55
56052;BME280;41919;42.648;23.384;2023-03-20T16:14:52;94393.69;;;19.19;25.15
56052;BME280;41919;42.648;23.384;2023-03-20T16:17:19;94395.81;;;19.17;25.66
56052;BME280;41919;42.648;23.384;2023-03-20T16:19:46;94396.88;;;19.11;26.32
56052;BME280;41919;42.648;23.384;2023-03-20T16:24:38;94418.88;;;19.22;26.92
56052;BME280;41919;42.648;23.384;2023-03-20T16:27:07;94405.31;;;19.08;27.07
56052;BME280;41919;42.648;23.384;2023-03-20T16:29:33;94410.91;;;19.06;27.24
56052;BME280;41919;42.648;23.384;2023-03-20T16:32:05;94400.78;;;18.93;27.68
56052;BME280;41919;42.648;23.384;2023-03-20T16:34:34;94417.22;;;18.95;28.13
56052;BME280;41919;42.648;23.384;2023-03-20T16:37:06;94389.28;;;18.72;35.50
56052;BME280;41919;42.648;23.384;2023-03-20T16:39:32;94431.53;;;18.99;29.67
56052;BME280;41919;42.648;23.384;2023-03-20T16:44:33;94425.69;;;18.97;28.95
56052;BME280;41919;42.648;23.384;2023-03-20T16:47:14;94385.28;;;18.69;28.67
56052;BME280;41919;42.648;23.384;2023-03-20T16:52:26;94372.44;;;18.40;28.68
56052;BME280;41919;42.648;23.384;2023-03-20T16:54:55;94364.28;;;17.99;29.85
56052;BME280;41919;42.648;23.384;2023-03-20T16:57:21;94368.25;;;17.70;30.40
56052;BME280;41919;42.648;23.384;2023-03-20T16:59:47;94369.59;;;17.40;31.00
56052;BME280;41919;42.648;23.384;2023-03-20T17:02:35;94434.41;;;17.48;31.35
56052;BME280;41919;42.648;23.384;2023-03-20T17:05:05;94426.47;;;17.20;31.65
56052;BME280;41919;42.648;23.384;2023-03-20T17:07:31;94358.16;;;16.58;32.22
56052;BME280;41919;42.648;23.384;2023-03-20T17:12:38;94420.44;;;16.81;32.72
56052;BME280;41919;42.648;23.384;2023-03-20T17:15:05;94368.94;;;16.34;33.10
56052;BME280;41919;42.648;23.384;2023-03-20T17:17:31;94437.81;;;16.77;33.09
56052;BME280;41919;42.648;23.384;2023-03-20T17:19:56;94367.22;;;16.23;33.46
56052;BME280;41919;42.648;23.384;2023-03-20T17:22:24;94368.88;;;16.29;33.35
56052;BME280;41919;42.648;23.384;2023-03-20T17:24:50;94350.84;;;16.21;33.65
56052;BME280;41919;42.648;23.384;2023-03-20T17:27:16;94408.63;;;16.44;32.43
56052;BME280;41919;42.648;23.384;2023-03-20T17:29:44;94419.63;;;16.19;32.28
56052;BME280;41919;42.648;23.384;2023-03-20T17:32:16;94343.44;;;15.33;33.34
56052;BME280;41919;42.648;23.384;2023-03-20T17:34:42;94364.69;;;15.15;33.53
56052;BME280;41919;42.648;23.384;2023-03-20T17:37:14;94426.91;;;15.33;34.15
56052;BME280;41919;42.648;23.384;2023-03-20T17:39:40;94387.47;;;14.92;33.74
56052;BME280;41919;42.648;23.384;2023-03-20T17:42:24;94366.22;;;14.82;33.59
56052;BME280;41919;42.648;23.384;2023-03-20T17:44:54;94345.38;;;14.63;33.61
56052;BME280;41919;42.648;23.384;2023-03-20T17:47:21;94383.56;;;14.95;33.58
56052;BME280;41919;42.648;23.384;2023-03-20T17:49:48;94444.59;;;15.37;33.74
56052;BME280;41919;42.648;23.384;2023-03-20T17:52:15;94384.22;;;15.02;33.60
56052;BME280;41919;42.648;23.384;2023-03-20T17:54:41;94448.09;;;15.26;34.48
56052;BME280;41919;42.648;23.384;2023-03-20T17:57:42;94446.22;;;14.69;35.18
56052;BME280;41919;42.648;23.384;2023-03-20T18:00:21;94476.75;;;14.58;36.52
56052;BME280;41919;42.648;23.384;2023-03-20T18:02:47;94459.69;;;14.25;37.49
56052;BME280;41919;42.648;23.384;2023-03-20T18:05:12;94445.63;;;13.96;37.59
56052;BME280;41919;42.648;23.384;2023-03-20T18:07:38;94479.22;;;14.06;37.67
56052;BME280;41919;42.648;23.384;2023-03-20T18:10:04;94398.06;;;13.62;37.12
56052;BME280;41919;42.648;23.384;2023-03-20T18:12:30;94458.44;;;14.16;35.90
56052;BME280;41919;42.648;23.384;2023-03-20T18:14:59;94479.00;;;14.31;35.62
56052;BME280;41919;42.648;23.384;2023-03-20T18:17:24;94396.72;;;13.95;35.49
56052;BME280;41919;42.648;23.384;2023-03-20T18:19:52;94461.41;;;14.43;35.30
56052;BME280;41919;42.648;23.384;2023-03-20T18:22:17;94353.78;;;13.78;35.31
56052;BME280;41919;42.648;23.384;2023-03-20T18:24:43;94394.31;;;14.05;35.09
56052;BME280;41919;42.648;23.384;2023-03-20T18:27:09;94412.97;;;14.16;34.88
56052;BME280;41919;42.648;23.384;2023-03-20T18:29:35;94451.56;;;14.50;34.51
56052;BME280;41919;42.648;23.384;2023-03-20T18:32:00;94454.75;;;14.52;35.05
56052;BME280;41919;42.648;23.384;2023-03-20T18:34:26;94381.19;;;14.05;35.09
56052;BME280;41919;42.648;23.384;2023-03-20T18:36:51;94467.59;;;14.61;35.05
56052;BME280;41919;42.648;23.384;2023-03-20T18:39:23;94401.09;;;14.25;34.82
56052;BME280;41919;42.648;23.384;2023-03-20T18:41:49;94445.84;;;14.54;34.79
56052;BME280;41919;42.648;23.384;2023-03-20T18:44:14;94383.56;;;14.19;34.72
56052;BME280;41919;42.648;23.384;2023-03-20T18:46:40;94394.66;;;14.21;35.17
56052;BME280;41919;42.648;23.384;2023-03-20T18:49:06;94419.31;;;14.43;34.78
56052;BME280;41919;42.648;23.384;2023-03-20T18:51:32;94482.09;;;14.75;34.78
56052;BME280;41919;42.648;23.384;2023-03-20T18:53:57;94400.84;;;14.15;35.05
56052;BME280;41919;42.648;23.384;2023-03-20T18:56:24;94483.13;;;14.62;35.13
56052;BME280;41919;42.648;23.384;2023-03-20T18:58:51;94464.38;;;14.35;35.38
56052;BME280;41919;42.648;23.384;2023-03-20T19:01:17;94422.22;;;14.06;35.37
56052;BME280;41919;42.648;23.384;2023-03-20T19:03:43;94415.47;;;13.87;35.87
56052;BME280;41919;42.648;23.384;2023-03-20T19:06:20;94497.50;;;14.24;36.97
56052;BME280;41919;42.648;23.384;2023-03-20T19:08:48;94482.06;;;13.92;37.52
56052;BME280;41919;42.648;23.384;2023-03-20T19:11:14;94434.47;;;13.47;38.37
56052;BME280;41919;42.648;23.384;2023-03-20T19:13:46;94499.50;;;13.75;38.97
56052;BME280;41919;42.648;23.384;2023-03-20T19:16:34;94497.75;;;13.69;39.07
56052;BME280;41919;42.648;23.384;2023-03-20T19:19:01;94487.94;;;13.64;39.40
56052;BME280;41919;42.648;23.384;2023-03-20T19:21:29;94438.84;;;13.34;39.51